Time;durP1;ratioP1;P1;durP2;ratioP2;P2;SDS_P1;SDS_P2;PMS_P1;PMS_P2;Temp;Humidity;BMP_temperature;BMP_pressure;BME280_temperature;BME280_humidity;BME280_pressure;Samples;Min_cycle;Max_cycle;Signal;HPM_P1;HPM_P2
2024/04/25 00:00:23;;;;;;;8.30;7.50;;;;;;;5.05;81.26;97210.72;5160592;27;20439;-75
2024/04/25 00:02:51;;;;;;;7.97;7.20;;;;;;;5.03;81.07;97199.47;5191037;27;20011;-76
2024/04/25 00:05:17;;;;;;;7.93;7.20;;;;;;;5.12;80.96;97213.25;5222959;27;20085;-76
2024/04/25 00:07:42;;;;;;;7.85;7.13;;;;;;;4.97;80.88;97186.25;5192087;27;20009;-76
2024/04/25 00:10:07;;;;;;;7.88;7.18;;;;;;;5.07;80.98;97211.28;5185900;27;20056;-75
2024/04/25 00:12:33;;;;;;;8.13;6.75;;;;;;;5.05;81.11;97205.38;5155879;27;20370;-75
2024/04/25 00:14:58;;;;;;;7.82;7.13;;;;;;;4.96;81.15;97193.44;5156601;27;20551;-75
2024/04/25 00:17:24;;;;;;;7.88;7.07;;;;;;;5.12;80.77;97208.72;5174711;27;20015;-75
2024/04/25 00:19:49;;;;;;;7.97;7.18;;;;;;;5.08;81.30;97198.75;5175111;27;20008;-74
2024/04/25 00:22:14;;;;;;;8.57;7.30;;;;;;;5.13;81.12;97209.53;5177429;27;20008;-75
2024/04/25 00:24:40;;;;;;;7.13;6.47;;;;;;;5.12;80.90;97198.06;5190922;27;20503;-74
2024/04/25 00:27:08;;;;;;;7.07;6.47;;;;;;;5.08;81.02;97196.91;5181863;27;20015;-75
2024/04/25 00:29:33;;;;;;;8.85;7.95;;;;;;;5.17;81.41;97206.19;5197381;27;20401;-74
2024/04/25 00:31:59;;;;;;;9.27;7.55;;;;;;;5.14;81.18;97206.63;5182457;27;20101;-75
2024/04/25 00:34:24;;;;;;;8.88;7.75;;;;;;;5.19;81.16;97204.06;5176229;27;20005;-74
2024/04/25 00:36:50;;;;;;;8.77;7.15;;;;;;;5.19;81.44;97198.75;5158215;27;20849;-74
2024/04/25 00:39:15;;;;;;;9.27;7.85;;;;;;;5.20;81.29;97196.88;5180561;27;20143;-76
2024/04/25 00:41:41;;;;;;;9.45;8.50;;;;;;;5.20;81.25;97200.38;5160998;27;20008;-76
2024/04/25 00:44:06;;;;;;;8.93;8.07;;;;;;;5.24;81.85;97196.19;5190253;27;20121;-76
2024/04/25 00:46:31;;;;;;;9.10;8.20;;;;;;;5.24;81.43;97198.84;5185992;27;20008;-75
2024/04/25 00:48:57;;;;;;;9.50;8.57;;;;;;;5.09;81.87;97192.38;5193752;27;20452;-75
2024/04/25 00:51:23;;;;;;;8.75;7.95;;;;;;;5.15;81.81;97192.25;5188181;27;20012;-75
2024/04/25 00:53:49;;;;;;;8.98;8.07;;;;;;;5.19;81.58;97198.75;5185600;27;20028;-76
2024/04/25 00:56:15;;;;;;;10.10;9.10;;;;;;;5.14;82.02;97187.94;5176902;27;20075;-76
2024/04/25 00:58:42;;;;;;;10.55;8.68;;;;;;;5.08;81.87;97178.22;5187792;27;20012;-75
2024/04/25 01:01:08;;;;;;;10.82;9.18;;;;;;;5.11;82.51;97204.41;5158239;27;20501;-75
2024/04/25 01:03:34;;;;;;;9.20;8.32;;;;;;;5.04;82.10;97166.38;5166004;27;20055;-74
2024/04/25 01:06:01;;;;;;;10.15;8.98;;;;;;;5.14;82.58;97192.47;5180324;27;20345;-75
2024/04/25 01:08:28;;;;;;;10.65;9.63;;;;;;;5.02;82.37;97187.16;5216805;27;20359;-75
2024/04/25 01:10:53;;;;;;;10.82;9.73;;;;;;;5.08;82.35;97186.22;5245072;27;20063;-74
2024/04/25 01:13:19;;;;;;;13.38;10.52;;;;;;;5.19;82.59;97206.75;5198350;27;20000;-75
2024/04/25 01:15:44;;;;;;;10.35;9.32;;;;;;;5.08;82.56;97186.22;5190520;27;20019;-75
2024/04/25 01:18:13;;;;;;;11.00;9.68;;;;;;;5.03;82.66;97199.47;5221101;27;20003;-76
2024/04/25 01:20:38;;;;;;;11.40;9.95;;;;;;;5.10;82.74;97196.66;5185424;27;20020;-76
2024/04/25 01:23:06;;;;;;;11.57;10.48;;;;;;;4.95;83.50;97202.47;5215625;27;20018;-75
2024/04/25 01:25:33;;;;;;;11.77;10.57;;;;;;;4.96;83.30;97188.09;5196959;27;20008;-74
2024/04/25 01:27:59;;;;;;;11.07;9.95;;;;;;;4.93;83.34;97199.22;5211252;27;20019;-74
2024/04/25 01:30:27;;;;;;;12.23;10.98;;;;;;;4.93;83.90;97193.88;5203678;27;20008;-76
2024/04/25 01:32:53;;;;;;;10.30;9.07;;;;;;;4.95;83.97;97188.34;5134170;27;20016;-75
2024/04/25 01:35:19;;;;;;;10.27;9.38;;;;;;;4.86;84.11;97182.53;5179431;27;20056;-75
2024/04/25 01:37:45;;;;;;;9.93;8.93;;;;;;;4.90;84.03;97205.06;5192196;27;20008;-75
2024/04/25 01:40:10;;;;;;;10.63;9.57;;;;;;;4.90;83.93;97183.72;5187998;27;20094;-75
2024/04/25 01:42:36;;;;;;;10.63;9.70;;;;;;;4.83;83.69;97177.69;5205196;27;19996;-75
2024/04/25 01:45:01;;;;;;;10.90;9.80;;;;;;;4.79;84.40;97177.31;5160781;27;20457;-76
2024/04/25 01:47:26;;;;;;;11.20;9.57;;;;;;;4.91;84.21;97195.97;5183105;27;20083;-75
2024/04/25 01:49:52;;;;;;;11.65;9.15;;;;;;;4.82;84.64;97184.88;5168514;27;20012;-75
2024/04/25 01:52:17;;;;;;;10.77;9.48;;;;;;;4.79;84.66;97182.66;5169593;27;20019;-76
2024/04/25 01:54:42;;;;;;;10.07;9.07;;;;;;;4.80;84.78;97189.63;5191448;27;20012;-76
2024/04/25 01:57:08;;;;;;;9.77;8.90;;;;;;;4.82;84.37;97171.53;5187872;27;20444;-76
2024/04/25 01:59:33;;;;;;;9.57;8.77;;;;;;;4.87;83.76;97168.16;5217900;27;19996;-76
2024/04/25 02:01:58;;;;;;;9.50;8.27;;;;;;;4.83;83.82;97162.47;5191479;27;20008;-74
2024/04/25 02:04:24;;;;;;;9.13;8.23;;;;;;;4.84;83.88;97163.28;5163845;27;20011;-75
2024/04/25 02:06:50;;;;;;;8.82;7.97;;;;;;;4.90;83.56;97173.03;5157629;27;20011;-75
2024/04/25 02:09:15;;;;;;;9.75;8.75;;;;;;;4.94;84.19;97190.19;5208913;27;20000;-75
2024/04/25 02:11:41;;;;;;;9.05;8.25;;;;;;;4.86;83.59;97174.53;5198253;27;20000;-75
2024/04/25 02:14:07;;;;;;;8.75;7.97;;;;;;;4.77;83.39;97162.59;5161032;27;20318;-76
2024/04/25 02:16:33;;;;;;;9.15;8.35;;;;;;;5.04;83.39;97185.06;5191140;27;20015;-75
2024/04/25 02:18:58;;;;;;;9.15;8.25;;;;;;;4.90;83.31;97157.03;5190568;27;20014;-76
2024/04/25 02:26:52;;;;;;;10.27;9.25;;;;;;;4.98;83.47;97177.19;5167905;27;20004;-75
2024/04/25 02:29:17;;;;;;;9.57;8.50;;;;;;;4.96;83.38;97158.75;5184140;27;20355;-76
2024/04/25 02:31:42;;;;;;;10.07;9.10;;;;;;;4.98;83.11;97170.00;5218282;27;20015;-76
2024/04/25 02:34:08;;;;;;;10.88;9.98;;;;;;;5.03;82.96;97166.63;5160544;27;20071;-75
2024/04/25 02:36:36;;;;;;;11.85;9.52;;;;;;;4.97;83.52;97168.38;5182802;27;20019;-76
2024/04/25 02:39:02;;;;;;;10.07;9.07;;;;;;;4.93;83.48;97161.88;5194969;27;20004;-75
2024/04/25 02:41:27;;;;;;;10.75;9.68;;;;;;;4.99;83.67;97165.47;5192918;27;20090;-76
2024/04/25 02:43:52;;;;;;;10.30;9.30;;;;;;;4.95;83.17;97154.44;5191377;27;20068;-75
2024/04/25 02:46:18;;;;;;;10.85;9.63;;;;;;;5.16;83.43;97175.19;5154256;27;20352;-76
2024/04/25 02:48:43;;;;;;;10.43;9.43;;;;;;;5.16;83.38;97169.84;5188892;27;20087;-75
2024/04/25 02:51:08;;;;;;;11.18;10.07;;;;;;;5.19;83.12;97161.38;5200042;27;20015;-76
2024/04/25 02:53:36;;;;;;;11.45;10.27;;;;;;;5.19;83.39;97164.03;5189903;27;20012;-75
2024/04/25 02:56:02;;;;;;;10.85;9.85;;;;;;;5.23;82.82;97161.69;5180422;27;20001;-76
2024/04/25 02:58:27;;;;;;;11.52;10.43;;;;;;;5.26;82.96;97166.56;5193680;27;20000;-76
2024/04/25 03:00:58;;;;;;;12.00;10.80;;;;;;;5.30;83.07;97173.88;5219967;27;20087;-75
2024/04/25 03:03:24;;;;;;;11.73;10.55;;;;;;;5.30;83.17;97163.19;5190875;27;20081;-76
2024/04/25 03:05:49;;;;;;;11.98;10.88;;;;;;;5.25;83.32;97157.75;5176967;27;20397;-76
2024/04/25 03:08:14;;;;;;;12.63;11.38;;;;;;;5.07;83.84;97160.59;5193991;27;20012;-76
2024/04/25 03:10:40;;;;;;;12.70;11.40;;;;;;;5.08;83.54;97142.72;5159337;27;20349;-76
2024/04/25 03:13:05;;;;;;;14.25;12.80;;;;;;;5.25;83.52;97160.41;5185177;27;20080;-75
2024/04/25 03:15:31;;;;;;;13.73;12.43;;;;;;;5.05;84.40;97144.00;5183085;27;20001;-76
2024/04/25 03:17:56;;;;;;;15.07;12.68;;;;;;;5.06;84.41;97148.31;5183278;27;20664;-76
2024/04/25 03:20:21;;;;;;;15.48;13.02;;;;;;;5.09;84.38;97139.81;5154834;27;20009;-75
2024/04/25 03:22:47;;;;;;;17.25;14.07;;;;;;;5.11;84.30;97148.38;5186079;27;20000;-75
2024/04/25 03:25:12;;;;;;;15.65;14.05;;;;;;;5.00;84.75;97162.56;5183758;27;19999;-75
2024/04/25 03:27:41;;;;;;;16.15;13.35;;;;;;;4.87;84.88;97152.16;5208958;27;20456;-75
2024/04/25 03:30:06;;;;;;;16.55;14.82;;;;;;;4.83;85.76;97180.34;5186048;27;20015;-75
2024/04/25 03:32:32;;;;;;;15.65;14.10;;;;;;;4.89;85.62;97198.06;5200286;27;20010;-74
2024/04/25 03:34:57;;;;;;;12.85;10.55;;;;;;;4.70;84.80;97204.56;5175344;27;20012;-75
2024/04/25 03:37:22;;;;;;;7.40;6.70;;;;;;;4.55;84.64;97206.88;5162968;27;20025;-75
2024/04/25 03:39:48;;;;;;;5.85;5.35;;;;;;;4.26;84.11;97191.75;5178359;27;20076;-77
2024/04/25 03:42:13;;;;;;;6.20;4.75;;;;;;;4.11;84.33;97206.31;5172197;27;20019;-77
2024/04/25 03:44:39;;;;;;;4.72;4.32;;;;;;;3.93;85.30;97206.41;5201267;27;20470;-75
2024/04/25 03:47:04;;;;;;;5.80;4.88;;;;;;;3.97;84.25;97178.25;5199546;27;20015;-74
2024/04/25 03:49:30;;;;;;;6.88;4.97;;;;;;;4.10;84.84;97210.06;5204818;27;20776;-74
2024/04/25 03:51:55;;;;;;;5.10;4.68;;;;;;;4.03;84.58;97171.22;5175420;27;20103;-74
2024/04/25 03:54:20;;;;;;;6.30;5.70;;;;;;;3.96;85.07;97168.66;5185611;27;20012;-74
2024/04/25 03:56:46;;;;;;;7.00;6.30;;;;;;;3.97;85.92;97191.59;5206590;27;20704;-75
2024/04/25 03:59:11;;;;;;;6.72;5.90;;;;;;;4.01;85.33;97176.75;5160084;27;20003;-75
2024/04/25 04:01:36;;;;;;;10.35;7.13;;;;;;;4.25;84.92;97206.16;5196205;27;20353;-75
2024/04/25 04:04:02;;;;;;;9.52;7.55;;;;;;;4.13;85.49;97193.59;5175809;27;20009;-74
2024/04/25 04:06:27;;;;;;;8.30;7.32;;;;;;;4.19;85.71;97191.88;5207196;27;20019;-75
2024/04/25 04:08:53;;;;;;;7.32;6.43;;;;;;;4.08;85.92;97198.00;5178425;27;20019;-75
2024/04/25 04:11:18;;;;;;;9.48;7.07;;;;;;;4.17;85.74;97210.75;5176705;27;20538;-75
2024/04/25 04:13:43;;;;;;;8.55;7.50;;;;;;;4.15;85.25;97196.03;5185229;27;20022;-76
2024/04/25 04:16:09;;;;;;;9.00;7.40;;;;;;;4.22;85.10;97190.59;5187850;27;20005;-76
2024/04/25 04:18:34;;;;;;;8.90;8.00;;;;;;;4.32;85.42;97199.66;5204589;27;20005;-76
2024/04/25 04:21:00;;;;;;;11.50;10.20;;;;;;;4.29;85.43;97209.97;5159251;27;20360;-75
2024/04/25 04:23:25;;;;;;;12.50;10.02;;;;;;;4.27;85.10;97188.06;5197410;27;20008;-75
2024/04/25 04:25:50;;;;;;;32.38;24.23;;;;;;;4.33;85.36;97208.47;5142931;27;20018;-76
2024/04/25 04:28:16;;;;;;;66.25;49.58;;;;;;;4.10;85.91;97199.41;5163390;27;20019;-76
2024/04/25 04:30:41;;;;;;;31.35;25.42;;;;;;;4.14;85.83;97208.53;5174107;27;20015;-75
2024/04/25 04:33:07;;;;;;;38.65;35.15;;;;;;;3.98;85.81;97193.22;5190164;27;20381;-75
2024/04/25 04:35:32;;;;;;;29.52;27.08;;;;;;;3.92;86.25;97191.44;5184966;27;20015;-75
2024/04/25 04:37:58;;;;;;;18.85;16.85;;;;;;;4.07;85.66;97199.84;5146384;27;20016;-75
2024/04/25 04:40:23;;;;;;;19.27;14.25;;;;;;;4.01;85.42;97194.63;5182087;27;19999;-74
2024/04/25 04:42:48;;;;;;;17.83;16.10;;;;;;;4.17;85.44;97209.94;5193974;27;20427;-76
2024/04/25 04:45:14;;;;;;;18.10;13.23;;;;;;;4.18;85.71;97227.53;5202022;27;20031;-74
2024/04/25 04:47:40;;;;;;;15.68;12.25;;;;;;;4.10;85.89;97226.03;5192096;27;20014;-76
2024/04/25 04:50:06;;;;;;;17.75;14.88;;;;;;;4.05;86.84;97217.91;5186114;27;20014;-75
2024/04/25 04:52:32;;;;;;;16.83;14.98;;;;;;;4.09;86.34;97208.41;5176783;27;20000;-75
2024/04/25 04:54:58;;;;;;;17.85;14.90;;;;;;;4.17;86.28;97221.41;5178730;27;20007;-76
2024/04/25 04:57:23;;;;;;;18.73;15.52;;;;;;;4.06;86.59;97214.19;5183430;27;20016;-76
2024/04/25 04:59:49;;;;;;;14.50;12.63;;;;;;;3.89;86.69;97185.78;5187982;27;20012;-74
2024/04/25 05:02:14;;;;;;;20.10;16.52;;;;;;;4.20;86.50;97225.50;5186724;27;20007;-75
2024/04/25 05:04:39;;;;;;;17.40;12.52;;;;;;;4.27;86.73;97228.03;5179497;27;20528;-75
2024/04/25 05:07:05;;;;;;;17.67;13.50;;;;;;;4.09;86.27;97186.28;5193022;27;20055;-76
2024/04/25 05:09:30;;;;;;;15.65;12.80;;;;;;;4.34;86.14;97231.41;5170560;27;20012;-75
2024/04/25 05:11:56;;;;;;;14.70;12.45;;;;;;;4.28;86.32;97205.66;5197169;27;20040;-75
2024/04/25 05:14:21;;;;;;;13.68;12.15;;;;;;;4.45;86.48;97219.97;5206848;27;20453;-75
2024/04/25 05:16:46;;;;;;;12.18;11.00;;;;;;;4.59;86.27;97237.38;5168847;27;20022;-75
2024/04/25 05:19:12;;;;;;;13.57;10.10;;;;;;;4.53;86.16;97231.09;5193218;27;20074;-76
2024/04/25 05:21:37;;;;;;;14.60;11.02;;;;;;;4.63;85.79;97231.34;5182877;27;19996;-76
2024/04/25 05:24:03;;;;;;;12.32;10.95;;;;;;;4.76;85.90;97236.44;5178035;27;20026;-74
2024/04/25 05:26:28;;;;;;;14.73;11.90;;;;;;;4.78;85.83;97228.22;5275630;21;20415;-74
2024/04/25 05:28:53;;;;;;;13.40;12.07;;;;;;;4.78;86.17;97221.03;5198042;27;20007;-74
2024/04/25 05:31:19;;;;;;;14.95;13.45;;;;;;;4.96;85.79;97241.44;5206332;27;20014;-74
2024/04/25 05:33:48;;;;;;;16.48;13.95;;;;;;;5.01;86.17;97244.25;5229470;27;20002;-74
2024/04/25 05:36:14;;;;;;;16.63;14.07;;;;;;;5.08;85.87;97247.59;5223372;27;20473;-74
2024/04/25 05:38:39;;;;;;;67.18;54.13;;;;;;;5.02;85.81;97224.50;5231530;27;20010;-74
2024/04/25 05:41:04;;;;;;;86.20;67.75;;;;;;;4.99;86.12;97229.50;5247207;27;20115;-74
2024/04/25 05:43:30;;;;;;;106.05;79.68;;;;;;;5.11;85.99;97244.44;5209744;27;20368;-74
2024/04/25 05:45:55;;;;;;;56.13;44.35;;;;;;;5.05;86.09;97233.91;5227933;27;20146;-74
2024/04/25 05:48:21;;;;;;;16.80;15.00;;;;;;;5.09;85.79;97230.53;5250186;27;20006;-74
2024/04/25 05:50:46;;;;;;;19.52;17.42;;;;;;;5.22;85.66;97230.31;5219190;27;20018;-74
2024/04/25 05:53:11;;;;;;;30.05;25.35;;;;;;;5.17;85.88;97216.84;5226077;27;20081;-74
2024/04/25 05:55:38;;;;;;;55.38;46.22;;;;;;;5.30;85.95;97243.28;5243998;27;20007;-75
2024/04/25 05:58:04;;;;;;;25.25;22.55;;;;;;;5.16;85.92;97231.22;5243293;27;20007;-75
2024/04/25 06:00:29;;;;;;;24.92;20.77;;;;;;;5.16;86.19;97249.91;5243823;27;20077;-75
2024/04/25 06:02:55;;;;;;;22.50;18.67;;;;;;;5.20;86.04;97237.75;5213523;27;20335;-74
2024/04/25 06:05:21;;;;;;;16.55;14.57;;;;;;;5.33;85.88;97253.50;5221832;27;20080;-74
2024/04/25 06:07:46;;;;;;;18.25;15.73;;;;;;;5.34;85.89;97249.78;5216720;27;20002;-74
2024/04/25 06:10:11;;;;;;;15.88;14.10;;;;;;;5.33;86.01;97248.16;5208214;27;20480;-74
2024/04/25 06:12:37;;;;;;;14.60;13.00;;;;;;;5.45;85.49;97254.28;5246252;27;19994;-75
2024/04/25 06:15:02;;;;;;;18.73;16.92;;;;;;;5.35;85.81;97246.06;5242208;27;20039;-75
2024/04/25 06:17:29;;;;;;;17.42;15.65;;;;;;;5.42;85.45;97249.41;5213700;27;20547;-74
2024/04/25 06:19:54;;;;;;;14.40;13.00;;;;;;;5.28;86.02;97245.38;5243280;27;20339;-74
2024/04/25 06:22:22;;;;;;;14.40;12.90;;;;;;;5.37;85.55;97257.31;5248155;27;20026;-75
2024/04/25 06:24:47;;;;;;;14.32;12.60;;;;;;;5.31;85.72;97252.91;5258436;27;20013;-75
2024/04/25 06:27:13;;;;;;;16.27;14.73;;;;;;;5.41;86.01;97257.66;5242290;27;20358;-75
2024/04/25 06:29:38;;;;;;;15.50;13.90;;;;;;;5.49;85.77;97254.63;5262348;27;20006;-75
2024/04/25 06:32:04;;;;;;;16.10;14.60;;;;;;;5.42;85.78;97257.44;5240755;27;20007;-75
2024/04/25 06:34:30;;;;;;;18.95;16.70;;;;;;;5.68;85.23;97261.44;5249973;27;20102;-74
2024/04/25 06:36:56;;;;;;;14.45;12.95;;;;;;;5.61;85.65;97260.75;5225066;27;20343;-74
2024/04/25 06:39:22;;;;;;;16.52;14.77;;;;;;;5.76;85.81;97274.44;5248467;27;20684;-75
2024/04/25 06:41:47;;;;;;;14.57;13.10;;;;;;;5.68;85.85;97255.28;5261888;27;20089;-75
2024/04/25 06:44:13;;;;;;;15.40;13.35;;;;;;;5.82;85.51;97272.66;5221290;27;20372;-75
2024/04/25 06:46:38;;;;;;;16.17;14.63;;;;;;;5.79;85.66;97246.44;5241435;27;20030;-75
2024/04/25 06:49:04;;;;;;;19.63;17.67;;;;;;;6.00;86.06;97280.53;5231585;27;20013;-74
2024/04/25 06:51:33;;;;;;;19.48;17.45;;;;;;;5.92;85.59;97262.22;5185084;27;20451;-75
2024/04/25 06:53:59;;;;;;;19.23;17.38;;;;;;;5.95;85.94;97264.41;5212972;27;20014;-74
2024/04/25 06:56:24;;;;;;;15.82;14.32;;;;;;;5.95;85.73;97272.44;5240973;27;20011;-75
2024/04/25 06:58:50;;;;;;;18.00;16.00;;;;;;;5.87;85.79;97267.47;5222825;27;19995;-75
2024/04/25 07:01:16;;;;;;;14.45;13.05;;;;;;;5.97;85.12;97275.69;5250651;27;20447;-74
2024/04/25 07:03:41;;;;;;;18.60;14.40;;;;;;;5.91;85.13;97279.28;5258645;27;20049;-75
2024/04/25 07:06:07;;;;;;;14.68;13.23;;;;;;;5.89;85.03;97262.69;5244848;27;20007;-75
2024/04/25 07:08:32;;;;;;;15.52;13.93;;;;;;;5.82;84.87;97270.00;5215433;27;20007;-75
2024/04/25 07:10:59;;;;;;;14.98;13.57;;;;;;;5.82;85.49;97273.47;5224853;27;20074;-75
2024/04/25 07:13:24;;;;;;;15.23;13.63;;;;;;;5.78;85.08;97274.19;5222439;27;20022;-75
2024/04/25 07:15:50;;;;;;;13.55;12.02;;;;;;;5.79;84.49;97270.47;5249214;27;20007;-75
2024/04/25 07:18:15;;;;;;;13.05;11.55;;;;;;;5.82;84.75;97281.50;5239036;27;20011;-75
2024/04/25 07:20:41;;;;;;;11.93;9.98;;;;;;;5.54;83.94;97249.41;5209800;27;20554;-74
2024/04/25 07:23:06;;;;;;;12.85;9.55;;;;;;;5.49;83.78;97263.44;5214523;27;20036;-74
2024/04/25 07:25:31;;;;;;;9.57;8.50;;;;;;;5.54;83.51;97268.91;5227484;27;20446;-74
2024/04/25 07:27:57;;;;;;;11.90;8.38;;;;;;;5.57;83.05;97264.94;5212088;27;20017;-75
2024/04/25 07:30:23;;;;;;;9.13;8.32;;;;;;;5.80;82.54;97285.44;5240081;27;20015;-74
2024/04/25 07:32:48;;;;;;;9.38;8.52;;;;;;;5.56;82.49;97248.13;5234723;27;20415;-74
2024/04/25 07:35:14;;;;;;;8.75;7.85;;;;;;;5.87;81.89;97275.47;5244080;27;20018;-75
2024/04/25 07:37:40;;;;;;;7.85;6.93;;;;;;;5.82;81.72;97270.00;5241918;27;20018;-75
2024/04/25 07:40:07;;;;;;;8.38;7.18;;;;;;;5.70;81.61;97263.84;5215064;27;20077;-75
2024/04/25 07:42:33;;;;;;;8.70;7.82;;;;;;;6.01;81.32;97274.16;5239709;27;20031;-75
2024/04/25 07:45:01;;;;;;;8.30;7.53;;;;;;;5.82;80.99;97267.31;5211080;27;20078;-75
2024/04/25 07:47:29;;;;;;;7.35;6.53;;;;;;;5.97;80.99;97281.84;5239909;27;20007;-75
2024/04/25 07:49:55;;;;;;;7.25;6.55;;;;;;;5.77;80.62;97253.84;5207508;27;20279;-75
2024/04/25 07:52:21;;;;;;;8.27;6.57;;;;;;;5.92;80.31;97288.94;5251028;27;20403;-75
2024/04/25 07:54:48;;;;;;;8.13;7.32;;;;;;;5.99;80.97;97284.28;5247284;27;20291;-75
2024/04/25 07:57:14;;;;;;;6.93;6.30;;;;;;;5.93;80.52;97258.47;5213702;27;20026;-75
2024/04/25 07:59:39;;;;;;;8.48;6.97;;;;;;;6.10;80.43;97276.19;5219220;27;20409;-75
2024/04/25 08:02:04;;;;;;;7.63;6.78;;;;;;;6.00;81.13;97264.50;5212597;27;20328;-75
2024/04/25 08:04:30;;;;;;;7.13;6.53;;;;;;;6.11;80.88;97282.38;5219819;27;20348;-75
2024/04/25 08:06:55;;;;;;;8.60;7.47;;;;;;;6.25;80.79;97284.50;5249177;27;20003;-75
2024/04/25 08:09:20;;;;;;;8.43;7.72;;;;;;;6.33;80.87;97275.28;5211758;27;20003;-75
2024/04/25 08:11:46;;;;;;;8.45;7.70;;;;;;;6.49;81.01;97269.16;5212413;27;20003;-75
2024/04/25 08:14:12;;;;;;;8.40;7.57;;;;;;;6.26;80.46;97279.97;5213585;27;20006;-75
2024/04/25 08:16:38;;;;;;;8.50;7.43;;;;;;;6.23;80.54;97281.25;5251248;27;20742;-75
2024/04/25 08:19:03;;;;;;;9.65;8.40;;;;;;;6.07;80.02;97249.13;5226084;27;20072;-75
2024/04/25 08:21:28;;;;;;;9.55;7.95;;;;;;;6.12;80.92;97262.59;5247853;27;20486;-74
2024/04/25 08:23:54;;;;;;;8.98;7.40;;;;;;;6.18;80.43;97272.34;5239520;27;19995;-75
2024/04/25 08:26:22;;;;;;;11.88;7.95;;;;;;;6.12;80.04;97297.34;5241037;27;20010;-75
2024/04/25 08:28:48;;;;;;;9.70;8.13;;;;;;;6.15;79.93;97278.16;5207311;27;20010;-75
2024/04/25 08:31:13;;;;;;;15.30;10.07;;;;;;;6.07;80.65;97290.03;5242089;27;20468;-75
2024/04/25 08:33:39;;;;;;;13.93;10.95;;;;;;;5.99;80.84;97311.00;5188211;27;20122;-74
2024/04/25 08:36:04;;;;;;;12.70;11.50;;;;;;;5.50;81.01;97315.81;5247930;27;20014;-74
2024/04/25 08:38:33;;;;;;;14.20;12.43;;;;;;;5.55;80.52;97294.53;5247496;27;20021;-74
2024/04/25 08:40:58;;;;;;;12.20;11.02;;;;;;;5.54;80.87;97298.28;5219543;27;20100;-74
2024/04/25 08:43:24;;;;;;;15.73;13.98;;;;;;;5.58;81.79;97312.78;5247222;27;20007;-74
2024/04/25 08:45:50;;;;;;;16.77;12.77;;;;;;;5.63;82.02;97268.53;5241963;27;20537;-74
2024/04/25 08:48:17;;;;;;;17.92;13.52;;;;;;;6.06;83.03;97307.13;5213245;27;20047;-74
2024/04/25 08:50:44;;;;;;;16.52;14.02;;;;;;;6.18;83.63;97291.06;5213406;27;20003;-74
2024/04/25 08:53:09;;;;;;;15.98;13.13;;;;;;;6.43;83.92;97299.53;5213477;27;20014;-74
2024/04/25 08:55:35;;;;;;;16.80;15.07;;;;;;;6.68;84.80;97305.34;5215380;27;20366;-74
2024/04/25 08:58:01;;;;;;;16.52;14.77;;;;;;;6.77;83.96;97278.97;5242001;27;19999;-74
2024/04/25 09:00:27;;;;;;;18.48;15.07;;;;;;;6.89;84.37;97295.78;5215779;27;20051;-75
2024/04/25 09:02:52;;;;;;;14.93;13.35;;;;;;;7.06;83.85;97301.13;5218880;27;20006;-74
2024/04/25 09:05:20;;;;;;;14.77;13.07;;;;;;;7.12;82.65;97302.84;5206959;27;20019;-74
2024/04/25 09:07:45;;;;;;;17.30;14.73;;;;;;;7.06;81.87;97301.13;5267984;27;19999;-75
2024/04/25 09:10:12;;;;;;;17.92;13.75;;;;;;;6.90;80.69;97287.53;5243760;27;20010;-75
2024/04/25 09:12:37;;;;;;;15.02;12.38;;;;;;;6.85;81.36;97286.63;5229950;27;20074;-74
2024/04/25 09:15:03;;;;;;;15.30;12.63;;;;;;;6.98;80.72;97297.00;5213507;27;20178;-74
2024/04/25 09:17:28;;;;;;;13.82;12.18;;;;;;;6.97;80.70;97288.19;5246996;27;20516;-75
2024/04/25 09:19:56;;;;;;;14.95;10.80;;;;;;;6.90;80.26;97292.88;5254814;27;20049;-75
2024/04/25 09:22:21;;;;;;;14.68;10.82;;;;;;;6.85;79.63;97287.44;5212745;27;20743;-75
2024/04/25 09:24:47;;;;;;;12.60;10.95;;;;;;;6.81;79.70;97291.63;5211848;27;20003;-75
2024/04/25 09:27:12;;;;;;;15.15;11.27;;;;;;;6.97;79.31;97298.88;5208760;27;20003;-75
2024/04/25 09:29:38;;;;;;;14.93;10.30;;;;;;;6.83;78.75;97284.19;5245203;27;20070;-74
2024/04/25 09:32:04;;;;;;;12.80;10.63;;;;;;;6.91;78.94;97294.50;5212940;27;19995;-74
2024/04/25 09:34:30;;;;;;;12.25;10.15;;;;;;;6.87;78.89;97279.97;5241538;27;20002;-75
2024/04/25 09:36:56;;;;;;;10.07;7.68;;;;;;;6.94;79.02;97283.31;5211573;27;20014;-74
2024/04/25 09:39:21;;;;;;;9.07;5.97;;;;;;;6.78;77.62;97278.75;5241042;27;20026;-75
2024/04/25 09:41:48;;;;;;;5.38;4.30;;;;;;;6.61;77.96;97266.41;5242296;27;20003;-75
2024/04/25 09:44:14;;;;;;;5.70;4.05;;;;;;;7.25;76.69;97292.63;5245252;27;20002;-75
2024/04/25 09:46:43;;;;;;;4.40;3.17;;;;;;;7.29;76.81;97287.56;5241456;27;20402;-75
2024/04/25 09:49:09;;;;;;;2.63;2.00;;;;;;;7.34;73.07;97274.25;5211572;27;20000;-74
2024/04/25 09:51:39;;;;;;;4.55;3.03;;;;;;;7.33;75.37;97276.13;5218136;27;19999;-75
2024/04/25 09:54:14;;;;;;;3.22;2.17;;;;;;;7.46;75.67;97256.22;5271512;27;20022;-75
2024/04/25 09:56:41;;;;;;;4.43;2.30;;;;;;;7.67;75.33;97268.81;5241736;27;20078;-75
2024/04/25 09:59:27;;;;;;;2.70;2.42;;;;;;;8.11;75.02;97272.31;5195493;27;20471;-75
2024/04/25 10:01:52;;;;;;;3.03;2.60;;;;;;;8.14;74.34;97278.00;5241503;27;20018;-75
2024/04/25 10:04:19;;;;;;;4.93;2.92;;;;;;;8.02;73.50;97274.63;5246011;27;20006;-75
2024/04/25 10:06:44;;;;;;;3.95;2.53;;;;;;;7.99;72.34;97259.03;5242675;27;20008;-75
2024/04/25 10:09:11;;;;;;;2.58;2.38;;;;;;;8.02;70.20;97255.84;5244140;27;20014;-75
2024/04/25 10:11:37;;;;;;;3.00;2.65;;;;;;;8.27;70.90;97250.78;5201430;27;20014;-75
2024/04/25 10:14:02;;;;;;;3.60;2.90;;;;;;;8.45;71.18;97273.75;5199094;27;20003;-75
2024/04/25 10:16:28;;;;;;;4.78;3.10;;;;;;;8.21;70.44;97254.44;5242401;27;20018;-75
2024/04/25 10:18:53;;;;;;;4.03;3.25;;;;;;;8.43;70.06;97269.72;5240753;27;20153;-75
2024/04/25 10:21:20;;;;;;;5.05;3.55;;;;;;;8.40;70.61;97238.03;5240357;27;20007;-75
2024/04/25 10:23:47;;;;;;;4.82;3.55;;;;;;;8.50;70.33;97238.13;5243015;27;20015;-75
2024/04/25 10:26:20;;;;;;;5.15;3.45;;;;;;;8.67;69.94;97266.47;5242233;27;20019;-75
2024/04/25 10:28:57;;;;;;;4.75;3.20;;;;;;;8.11;67.13;97235.56;5186980;27;20011;-75
2024/04/25 10:31:34;;;;;;;5.20;2.90;;;;;;;8.24;66.09;97256.63;5240215;27;20007;-75
2024/04/25 10:33:59;;;;;;;5.22;2.90;;;;;;;8.37;66.43;97249.28;5238408;27;20074;-75
2024/04/25 10:36:29;;;;;;;4.30;2.65;;;;;;;8.35;66.48;97262.94;5238050;27;20483;-76
2024/04/25 10:38:57;;;;;;;4.15;3.15;;;;;;;8.48;67.02;97256.34;5239541;27;20007;-75
2024/04/25 10:41:41;;;;;;;8.93;3.72;;;;;;;8.28;67.50;97247.03;5210951;27;20017;-75
2024/04/25 10:44:08;;;;;;;5.65;2.90;;;;;;;8.43;66.83;97258.97;5226492;27;20055;-75
2024/04/25 10:46:37;;;;;;;6.40;3.30;;;;;;;8.39;68.95;97257.88;5243977;27;20003;-74
2024/04/25 10:49:07;;;;;;;5.90;4.13;;;;;;;8.62;68.98;97238.78;5254594;27;20015;-75
2024/04/25 10:51:33;;;;;;;5.00;3.88;;;;;;;8.69;69.65;97231.31;5240044;27;20035;-74
2024/04/25 10:53:59;;;;;;;5.28;4.32;;;;;;;9.09;70.57;97237.00;5247362;27;20025;-75
2024/04/25 10:56:24;;;;;;;6.53;4.35;;;;;;;9.25;69.86;97219.91;5246554;27;20419;-75
2024/04/25 10:58:57;;;;;;;6.20;3.92;;;;;;;9.67;69.80;97239.50;5239854;27;20011;-75
2024/04/25 11:01:30;;;;;;;5.97;3.53;;;;;;;9.95;68.21;97232.88;5214400;27;20007;-75
2024/04/25 11:04:05;;;;;;;9.10;4.00;;;;;;;10.00;66.96;97221.31;5239148;27;20002;-75
2024/04/25 11:06:37;;;;;;;7.97;3.35;;;;;;;10.07;66.25;97228.09;5238548;27;20011;-75
2024/04/25 11:09:03;;;;;;;6.88;3.50;;;;;;;10.08;64.33;97229.69;5236252;27;20103;-75
2024/04/25 11:11:29;;;;;;;5.57;3.40;;;;;;;10.13;65.58;97226.22;5220616;27;20484;-75
2024/04/25 11:13:54;;;;;;;6.25;3.47;;;;;;;10.16;65.33;97209.56;5246338;27;19999;-74
2024/04/25 11:16:20;;;;;;;4.80;3.00;;;;;;;10.23;64.28;97223.56;5242710;27;20090;-75
2024/04/25 11:18:48;;;;;;;8.35;3.20;;;;;;;10.41;63.81;97223.06;5248498;27;20074;-75
2024/04/25 11:21:14;;;;;;;6.57;3.55;;;;;;;10.42;64.04;97203.16;5213569;27;20754;-75
2024/04/25 11:23:39;;;;;;;5.18;2.92;;;;;;;10.29;63.08;97214.47;5183464;27;20007;-75
2024/04/25 11:26:05;;;;;;;4.78;3.20;;;;;;;9.95;59.82;97213.25;5239761;27;20021;-75
2024/04/25 11:28:31;;;;;;;5.57;2.55;;;;;;;9.87;59.24;97216.47;5212123;27;20410;-75
2024/04/25 11:30:59;;;;;;;4.28;2.10;;;;;;;9.94;59.09;97227.78;5249482;27;20011;-75
2024/04/25 11:33:26;;;;;;;6.50;2.65;;;;;;;9.77;58.27;97221.78;5211672;27;20043;-75